Time;durP1;ratioP1;P1;durP2;ratioP2;P2;SDS_P1;SDS_P2;PMS_P1;PMS_P2;Temp;Humidity;BMP_temperature;BMP_pressure;BME280_temperature;BME280_humidity;BME280_pressure;Samples;Min_cycle;Max_cycle;Signal;HPM_P1;HPM_P2
2024/01/17 00:02:19;;;;;;;13.80;6.82;;;;;;;-144.05;66.14;57169.56;5092099;28;20085;-77
2024/01/17 00:04:50;;;;;;;14.20;7.35;;;;;;;-144.05;65.60;57135.56;5091336;28;20048;-79
2024/01/17 00:07:16;;;;;;;19.80;8.20;;;;;;;-144.05;65.46;57158.94;5091858;28;20024;-76
2024/01/17 00:09:42;;;;;;;16.50;6.90;;;;;;;-144.05;65.67;57150.44;5091355;28;20024;-79
2024/01/17 00:12:09;;;;;;;12.88;5.95;;;;;;;-144.05;65.62;57150.44;5091420;28;20082;-77
2024/01/17 00:14:36;;;;;;;20.40;6.63;;;;;;;-144.05;65.90;57156.81;5091195;28;20028;-77
2024/01/17 00:17:02;;;;;;;13.75;6.78;;;;;;;-144.05;65.58;57150.44;5091565;28;20028;-77
2024/01/17 00:19:30;;;;;;;14.27;6.38;;;;;;;-144.05;65.18;57150.44;5091456;28;20024;-77
2024/01/17 00:21:57;;;;;;;15.98;6.90;;;;;;;-144.05;65.65;57163.19;5096692;28;20461;-79
2024/01/17 00:24:23;;;;;;;9.88;6.53;;;;;;;-144.05;65.94;57118.59;5096418;28;20158;-78
2024/01/17 00:26:50;;;;;;;11.75;6.07;;;;;;;-144.05;65.88;57161.06;5089863;28;20028;-79
2024/01/17 00:29:16;;;;;;;14.95;6.20;;;;;;;-144.05;65.69;57184.44;5091519;28;20028;-78
2024/01/17 00:31:43;;;;;;;13.02;6.00;;;;;;;-144.05;65.83;57178.06;5091839;28;20038;-77
2024/01/17 00:34:09;;;;;;;12.05;5.68;;;;;;;-144.05;65.95;57137.69;5095623;28;20050;-81
2024/01/17 00:36:35;;;;;;;11.85;6.85;;;;;;;-144.05;65.45;57114.34;5108298;28;20294;-80
2024/01/17 00:39:02;;;;;;;11.43;5.88;;;;;;;-144.05;65.14;57099.47;5095651;28;20062;-78
2024/01/17 00:41:28;;;;;;;12.13;6.00;;;;;;;-144.05;65.28;57137.69;5099952;28;20035;-79
2024/01/17 00:43:54;;;;;;;16.15;7.05;;;;;;;-144.05;65.13;57152.56;5125251;28;20028;-78
2024/01/17 00:46:20;;;;;;;16.15;6.18;;;;;;;-144.05;65.22;57135.56;5099351;28;20519;-78
2024/01/17 00:48:47;;;;;;;12.15;6.03;;;;;;;-144.05;65.33;57167.44;5091072;28;20056;-78
2024/01/17 00:51:23;;;;;;;17.55;7.03;;;-4.20;99.90;;;-144.05;65.07;57144.06;5089844;28;20106;-78
2024/01/17 00:53:49;;;;;;;12.75;5.10;;;;;;;-144.05;64.38;57184.44;5090536;28;20504;-77
2024/01/17 00:56:16;;;;;;;12.73;6.07;;;0.70;99.90;;;-144.05;64.89;57163.19;5089812;28;20028;-78
2024/01/17 00:58:42;;;;;;;11.95;5.55;;;;;;;-144.05;64.66;57131.31;5089574;28;20548;-79
2024/01/17 01:01:08;;;;;;;14.50;5.50;;;;;;;-144.05;64.58;57131.31;5089439;28;20059;-79
2024/01/17 01:03:34;;;;;;;11.40;5.35;;;;;;;-144.05;64.37;57139.81;5088995;28;20565;-79
2024/01/17 01:06:01;;;;;;;8.75;5.15;;;;;;;-144.05;64.03;57133.44;5090735;28;20101;-77
2024/01/17 01:08:27;;;;;;;10.93;5.45;;;;;;;-144.05;64.13;57180.19;5090330;28;20024;-77
2024/01/17 01:10:53;;;;;;;16.88;7.40;;;;;;;-144.05;64.40;57141.94;5090674;28;20540;-77
2024/01/17 01:13:19;;;;;;;21.45;8.88;;;;;;;-144.05;64.11;57152.56;5090609;28;20032;-77
2024/01/17 01:15:45;;;;;;;23.98;7.90;;;;;;;-144.05;64.24;57129.22;5089360;28;20468;-77
2024/01/17 01:18:12;;;;;;;20.15;7.72;;;;;;;-144.05;63.77;57124.97;5089269;28;20098;-79
2024/01/17 01:20:38;;;;;;;30.52;11.63;;;;;;;-144.05;64.54;57135.56;5090873;28;20055;-78
2024/01/17 01:23:04;;;;;;;21.58;10.05;;;;;;;-144.05;63.87;57161.06;5090612;28;20397;-79
2024/01/17 01:25:30;;;;;;;29.42;11.02;;;;;;;-144.05;63.96;57163.19;5095427;28;20455;-77
2024/01/17 01:27:57;;;;;;;25.00;10.50;;;;;;;-144.05;64.26;57137.69;5093445;28;20118;-77
2024/01/17 01:30:23;;;;;;;17.92;8.65;;;;;;;-144.05;64.46;57167.44;5096408;28;20024;-79
2024/01/17 01:32:49;;;;;;;18.80;7.97;;;;;;;-144.05;64.88;57163.19;5089437;28;20453;-80
2024/01/17 01:35:15;;;;;;;17.15;8.05;;;;;;;-144.05;64.70;57133.44;5089514;28;20038;-79
2024/01/17 01:37:42;;;;;;;15.18;7.57;;;;;;;-144.05;64.52;57133.44;5091054;28;20100;-79
2024/01/17 01:40:09;;;;;;;11.95;5.85;;;;;;;-144.05;64.68;57167.44;5089294;28;20047;-79
2024/01/17 01:42:36;;;;;;;13.77;6.00;;;;;;;-144.05;64.57;57161.06;5090917;28;20039;-79
2024/01/17 01:45:04;;;;;;;10.68;5.95;;;;;;;-144.05;65.08;57173.81;5090110;28;20032;-79
2024/01/17 01:47:31;;;;;;;15.05;7.88;;;;;;;-144.05;64.70;57154.69;5093543;28;20504;-79
2024/01/17 01:49:58;;;;;;;15.07;6.43;;;;;;;-144.05;64.85;57195.06;5101075;28;20104;-80
2024/01/17 01:52:25;;;;;;;15.57;8.15;;;;;;;-144.05;65.09;57173.81;5101584;28;20485;-80
2024/01/17 01:54:53;;;;;;;21.50;9.50;;;;;;;-144.05;65.07;57163.19;5103123;28;20081;-79
2024/01/17 01:57:22;;;;;;;27.10;9.13;;;-2.20;99.90;;;-144.05;64.92;57148.31;5108279;28;20558;-77
2024/01/17 01:59:48;;;;;;;21.98;9.07;;;;;;;-144.05;65.28;57169.56;5098675;28;20024;-78
2024/01/17 02:02:15;;;;;;;28.25;10.20;;;1.50;99.90;;;-144.05;65.19;57197.19;5098437;28;20035;-79
2024/01/17 02:04:43;;;;;;;19.40;8.02;;;;;;;-144.05;65.46;57141.94;5104995;28;20042;-81
2024/01/17 02:07:14;;;;;;;25.42;9.45;;;-3.60;99.90;;;-144.05;65.41;57158.94;5108928;28;20032;-79
2024/01/17 02:09:40;;;;;;;26.73;10.13;;;;;;;-144.05;65.12;57173.81;5113340;28;20027;-81
2024/01/17 02:12:08;;;;;;;31.67;12.07;;;0.40;99.90;;;-144.05;64.91;57184.44;5117973;28;20040;-79
2024/01/17 02:14:39;;;;;;;23.65;9.85;;;;;;;-144.05;65.07;57175.94;5115489;28;20028;-79
2024/01/17 02:17:05;;;;;;;40.80;14.23;;;;;;;-144.05;64.74;57161.06;5120087;28;20075;-79
2024/01/17 02:19:32;;;;;;;59.65;19.05;;;;;;;-144.05;65.11;57150.44;5103732;28;20031;-78
2024/01/17 02:21:58;;;;;;;70.22;23.60;;;;;;;-144.05;65.06;57154.69;5097407;28;20039;-78
2024/01/17 02:24:24;;;;;;;59.65;18.95;;;;;;;-144.05;65.19;57152.56;5098989;28;20027;-76
2024/01/17 02:26:50;;;;;;;86.32;27.60;;;;;;;-144.05;64.87;57178.06;5094011;28;20089;-78
2024/01/17 02:29:17;;;;;;;70.18;23.35;;;;;;;-144.05;65.07;57158.94;5096367;28;20032;-77
2024/01/17 02:31:44;;;;;;;60.50;20.25;;;;;;;-144.05;65.60;57154.69;5099190;28;20407;-77
2024/01/17 02:34:10;;;;;;;50.88;17.33;;;;;;;-144.05;65.48;57173.81;5093507;28;20058;-77
2024/01/17 02:36:37;;;;;;;56.13;16.65;;;;;;;-144.05;65.51;57150.44;5092218;28;20024;-76
2024/01/17 02:39:04;;;;;;;42.97;13.43;;;;;;;-144.05;65.64;57120.72;5093657;28;20095;-78
2024/01/17 02:41:31;;;;;;;26.95;10.48;;;;;;;-144.05;65.66;57169.56;5093577;28;20034;-77
2024/01/17 02:43:57;;;;;;;31.50;10.25;;;;;;;-144.05;65.21;57144.06;5093128;28;20042;-77
2024/01/17 02:46:28;;;;;;;29.63;11.70;;;1.50;99.90;;;-144.05;65.72;57133.44;5096590;28;20123;-76
2024/01/17 02:48:55;;;;;;;38.47;13.00;;;;;;;-144.05;65.56;57127.09;5091746;28;20396;-79
2024/01/17 02:51:21;;;;;;;38.90;13.45;;;;;;;-144.05;65.46;57148.31;5093704;28;20036;-78
2024/01/17 02:53:47;;;;;;;43.03;15.02;;;;;;;-144.05;65.80;57114.34;5093172;28;20028;-78
2024/01/17 02:56:14;;;;;;;42.53;13.27;;;;;;;-144.05;65.91;57163.19;5092833;28;20032;-78
2024/01/17 02:58:40;;;;;;;26.52;10.82;;;;;;;-144.05;65.47;57186.56;5103222;28;20024;-78
2024/01/17 03:01:07;;;;;;;28.65;10.20;;;;;;;-144.05;65.97;57141.94;5099483;28;20635;-78
2024/01/17 03:03:33;;;;;;;26.10;9.18;;;;;;;-144.05;65.90;57156.81;5094842;28;20035;-80
2024/01/17 03:05:59;;;;;;;19.50;8.77;;;;;;;-144.05;65.87;57148.31;5096338;28;20039;-78
2024/01/17 03:08:25;;;;;;;16.55;7.82;;;;;;;-144.05;66.49;57197.19;5092354;28;20043;-76
2024/01/17 03:10:52;;;;;;;15.27;6.78;;;;;;;-144.05;66.02;57158.94;5091369;28;20043;-77
2024/01/17 03:13:18;;;;;;;16.13;7.47;;;;;;;-144.05;65.92;57163.19;5095380;28;20091;-78
2024/01/17 03:15:44;;;;;;;23.42;9.15;;;;;;;-144.05;65.67;57175.94;5096274;28;20446;-78
2024/01/17 03:18:13;;;;;;;20.42;7.88;;;;;;;-144.05;65.78;57150.44;5094283;28;20131;-76
2024/01/17 03:20:42;;;;;;;33.72;14.55;;;;;;;-144.05;65.90;57163.19;5091041;28;20177;-77
2024/01/17 03:23:09;;;;;;;26.23;10.27;;;;;;;-144.05;66.25;57152.56;5091114;28;20126;-77
2024/01/17 03:25:35;;;;;;;32.20;12.02;;;;;;;-144.05;66.24;57131.31;5095966;28;20097;-76
2024/01/17 03:28:02;;;;;;;35.10;13.65;;;;;;;-144.05;66.60;57156.81;5092515;28;20092;-77
2024/01/17 03:30:28;;;;;;;27.55;11.30;;;;;;;-144.05;66.02;57146.19;5103181;28;20435;-76
2024/01/17 03:32:54;;;;;;;20.50;9.20;;;;;;;-144.05;65.68;57169.56;5090405;28;20055;-77
2024/01/17 03:35:20;;;;;;;21.52;10.32;;;;;;;-144.05;65.68;57182.31;5099775;28;20059;-76
2024/01/17 03:37:46;;;;;;;18.42;9.30;;;;;;;-144.05;65.70;57163.19;5124691;28;20087;-80
2024/01/17 03:40:13;;;;;;;15.57;7.65;;;;;;;-144.05;66.27;57141.94;5111061;28;20050;-78
2024/01/17 03:42:39;;;;;;;12.32;6.63;;;;;;;-144.05;65.83;57154.69;5093676;28;20397;-78
2024/01/17 03:45:06;;;;;;;10.35;6.32;;;;;;;-144.05;65.53;57139.81;5092530;28;20062;-77
2024/01/17 03:47:32;;;;;;;12.63;6.03;;;;;;;-144.05;65.48;57148.31;5092436;28;20035;-79
2024/01/17 03:49:58;;;;;;;16.48;7.05;;;;;;;-144.05;65.85;57169.56;5092580;28;20201;-76
2024/01/17 03:52:25;;;;;;;15.10;7.05;;;;;;;-144.05;65.67;57139.81;5092741;28;20032;-78
2024/01/17 03:54:51;;;;;;;10.85;6.70;;;;;;;-144.05;65.32;57131.31;5105459;28;20039;-80
2024/01/17 03:57:18;;;;;;;12.63;7.50;;;;;;;-144.05;65.60;57107.97;5114753;28;20055;-81
2024/01/17 03:59:44;;;;;;;20.08;7.00;;;;;;;-144.05;65.46;57163.19;5092435;28;20101;-76
2024/01/17 04:02:11;;;;;;;12.10;6.85;;;;;;;-144.05;66.00;57156.81;5090583;28;20036;-78
2024/01/17 04:04:44;;;;;;;14.38;7.13;;;-3.90;99.90;;;-144.05;65.56;57163.19;5090183;28;20107;-78
2024/01/17 04:07:10;;;;;;;14.55;6.95;;;;;;;-144.05;65.41;57141.94;5091932;28;20032;-78
2024/01/17 04:09:37;;;;;;;14.32;7.05;;;;;;;-144.05;65.58;57141.94;5092654;28;20047;-77
2024/01/17 04:12:03;;;;;;;19.77;8.00;;;;;;;-144.05;65.78;57146.19;5092667;28;20024;-76
2024/01/17 04:14:30;;;;;;;13.15;6.35;;;-2.10;99.90;;;-144.05;65.43;57146.19;5092589;28;20028;-78
2024/01/17 04:16:56;;;;;;;15.63;7.38;;;;;;;-144.05;65.70;57161.06;5092366;28;20020;-78
2024/01/17 04:19:22;;;;;;;14.50;7.38;;;;;;;-144.05;65.65;57141.94;5091870;28;20552;-78
2024/01/17 04:21:48;;;;;;;19.73;8.25;;;;;;;-144.05;65.23;57122.84;5092006;28;20647;-78
2024/01/17 04:24:15;;;;;;;28.77;9.48;;;;;;;-144.05;65.20;57163.19;5091228;28;20036;-78
2024/01/17 04:26:41;;;;;;;44.72;13.60;;;;;;;-144.05;64.94;57165.31;5091559;28;20024;-78
2024/01/17 04:29:07;;;;;;;68.68;17.67;;;;;;;-144.05;64.95;57161.06;5091687;28;20101;-77
2024/01/17 04:31:33;;;;;;;46.85;14.52;;;;;;;-144.05;65.26;57146.19;5091996;28;20032;-77
2024/01/17 04:34:02;;;;;;;61.67;16.13;;;;;;;-144.05;64.97;57165.31;5091847;28;20032;-78
2024/01/17 04:36:30;;;;;;;63.10;19.00;;;;;;;-144.05;64.94;57158.94;5096228;28;20052;-77
2024/01/17 04:38:57;;;;;;;45.38;14.35;;;;;;;-144.05;65.11;57150.44;5096684;28;20024;-77
2024/01/17 04:41:24;;;;;;;29.63;11.55;;;;;;;-144.05;64.91;57124.97;5091072;28;20031;-78
2024/01/17 04:43:50;;;;;;;20.60;9.02;;;;;;;-144.05;64.81;57124.97;5091366;28;20024;-77
2024/01/17 04:46:17;;;;;;;17.98;7.82;;;;;;;-144.05;64.77;57146.19;5091668;28;20028;-77
2024/01/17 04:48:45;;;;;;;16.98;7.82;;;;;;;-144.05;64.99;57156.81;5089581;28;20020;-77
2024/01/17 04:51:12;;;;;;;15.75;6.93;;;;;;;-144.05;64.94;57135.56;5091864;28;20043;-78
2024/01/17 04:53:41;;;;;;;16.20;7.88;;;;;;;-144.05;64.82;57158.94;5099640;28;20032;-76
2024/01/17 04:56:13;;;;;;;18.77;7.35;;;;;;;-144.05;65.08;57158.94;5098956;28;20097;-80
2024/01/17 04:58:39;;;;;;;28.23;11.05;;;;;;;-144.05;65.13;57148.31;5093927;28;20512;-76
2024/01/17 05:01:06;;;;;;;22.95;10.82;;;;;;;-144.05;65.10;57139.81;5090929;28;20036;-78
2024/01/17 05:03:33;;;;;;;23.30;9.85;;;;;;;-144.05;65.17;57144.06;5090874;28;20036;-77
2024/01/17 05:06:00;;;;;;;41.00;13.80;;;;;;;-144.05;65.11;57158.94;5089783;28;20027;-76
2024/01/17 05:08:26;;;;;;;30.92;12.23;;;;;;;-144.05;65.43;57137.69;5090783;28;20048;-78
2024/01/17 05:10:53;;;;;;;37.72;14.00;;;;;;;-144.05;65.11;57131.31;5089452;28;20035;-79
2024/01/17 05:13:19;;;;;;;27.27;11.93;;;;;;;-144.05;64.96;57103.72;5091320;28;20032;-76
2024/01/17 05:15:45;;;;;;;23.27;10.68;;;;;;;-144.05;64.98;57144.06;5091779;28;20028;-78
2024/01/17 05:18:12;;;;;;;23.10;11.07;;;;;;;-144.05;64.97;57158.94;5110420;28;20023;-79
2024/01/17 05:20:39;;;;;;;19.33;9.50;;;;;;;-144.05;65.08;57156.81;5108378;28;20031;-79
2024/01/17 05:23:06;;;;;;;16.40;7.80;;;;;;;-144.05;64.82;57127.09;5112042;28;20526;-78
2024/01/17 05:25:33;;;;;;;24.05;8.82;;;;;;;-144.05;64.70;57150.44;5109830;28;20028;-77
2024/01/17 05:27:59;;;;;;;30.17;11.45;;;;;;;-144.05;64.53;57150.44;5105858;28;20027;-79
2024/01/17 05:30:26;;;;;;;50.72;17.40;;;;;;;-144.05;64.58;57127.09;5098935;28;20481;-77
2024/01/17 05:32:53;;;;;;;63.35;18.92;;;;;;;-144.05;64.57;57127.09;5102195;28;20051;-77
2024/01/17 05:35:23;;;;;;;41.75;15.80;;;;;;;-144.05;64.59;57156.81;5116605;28;20032;-79
2024/01/17 05:37:49;;;;;;;31.88;11.77;;;;;;;-144.05;64.61;57158.94;5108180;28;20028;-78
2024/01/17 05:40:16;;;;;;;31.38;12.65;;;;;;;-144.05;64.86;57163.19;5096869;28;20519;-75
2024/01/17 05:42:45;;;;;;;33.65;13.23;;;-3.70;99.90;;;-144.05;65.06;57146.19;5094691;28;20101;-76
2024/01/17 05:45:11;;;;;;;37.53;15.15;;;;;;;-144.05;65.31;57158.94;5094636;28;20421;-78
2024/01/17 05:47:39;;;;;;;30.42;13.00;;;;;;;-144.05;65.87;57146.19;5094845;28;20023;-78
2024/01/17 05:50:11;;;;;;;26.67;12.30;;;;;;;-144.05;66.09;57150.44;5101947;28;20628;-78
2024/01/17 05:52:42;;;;;;;31.08;13.85;;;-3.10;99.90;;;-144.05;66.23;57150.44;5103591;28;20023;-80
2024/01/17 05:55:10;;;;;;;20.83;9.15;;;-2.70;99.90;;;-144.05;66.22;57169.56;5097964;28;20390;-77
2024/01/17 05:57:37;;;;;;;15.00;8.07;;;;;;;-144.05;66.38;57148.31;5092777;28;20020;-77
2024/01/17 06:00:09;;;;;;;15.93;7.65;;;;;;;-144.05;66.82;57163.19;5096404;28;20035;-78
2024/01/17 06:02:41;;;;;;;13.80;7.80;;;;;;;-144.05;67.01;57127.09;5095834;28;20128;-78
2024/01/17 06:05:11;;;;;;;17.58;8.40;;;;;;;-144.05;67.36;57146.19;5092749;28;20042;-75
2024/01/17 06:07:42;;;;;;;15.65;8.13;;;;;;;-144.05;67.21;57148.31;5094332;28;20027;-76
2024/01/17 06:10:13;;;;;;;17.10;8.65;;;;;;;-144.05;67.12;57139.81;5094589;28;20116;-79
2024/01/17 06:12:40;;;;;;;87.60;28.52;;;;;;;-144.05;67.91;57156.81;5094098;28;20020;-76
2024/01/17 06:15:08;;;;;;;33.75;15.27;;;;;;;-144.05;68.11;57188.69;5094023;28;20103;-78
2024/01/17 06:17:34;;;;;;;37.80;15.15;;;;;;;-144.05;67.79;57167.44;5092937;28;20024;-76
2024/01/17 06:20:00;;;;;;;41.25;15.98;;;;;;;-144.05;67.81;57163.19;5105089;28;20103;-75
2024/01/17 06:22:27;;;;;;;34.20;13.23;;;;;;;-144.05;67.98;57135.56;5094176;28;20047;-76
2024/01/17 06:24:53;;;;;;;36.33;12.65;;;;;;;-144.05;68.09;57175.94;5101048;28;20142;-77
2024/01/17 06:27:19;;;;;;;41.05;17.10;;;;;;;-144.05;68.08;57180.19;5099666;28;20024;-78
2024/01/17 06:29:46;;;;;;;58.90;21.20;;;;;;;-144.05;68.27;57190.81;5122745;28;20032;-76
2024/01/17 06:32:13;;;;;;;31.52;13.45;;;;;;;-144.05;67.82;57180.19;5109391;28;20096;-76
2024/01/17 06:34:40;;;;;;;18.55;9.13;;;;;;;-144.05;67.52;57148.31;5095166;28;20024;-75
2024/01/17 06:37:07;;;;;;;19.90;9.23;;;;;;;-144.05;67.90;57175.94;5094570;28;20393;-75
2024/01/17 06:39:34;;;;;;;111.35;35.85;;;;;;;-144.05;67.74;57137.69;5094804;28;20468;-77
2024/01/17 06:42:00;;;;;;;29.55;13.48;;;;;;;-144.05;67.95;57133.44;5095426;28;20059;-75
2024/01/17 06:44:29;;;;;;;22.48;8.63;;;;;;;-144.05;68.13;57188.69;5094988;28;20020;-76
2024/01/17 06:46:56;;;;;;;17.80;9.98;;;;;;;-144.05;68.12;57150.44;5114635;28;20571;-75
2024/01/17 06:49:22;;;;;;;16.17;8.90;;;;;;;-144.05;68.40;57205.66;5098750;28;20028;-77
2024/01/17 06:51:49;;;;;;;17.08;8.90;;;;;;;-144.05;68.35;57171.69;5095271;28;20044;-76
2024/01/17 06:54:15;;;;;;;21.08;8.48;;;;;;;-144.05;68.49;57154.69;5094022;28;20110;-78
2024/01/17 06:56:41;;;;;;;19.35;9.20;;;;;;;-144.05;68.32;57146.19;5095502;28;20035;-77
2024/01/17 06:59:08;;;;;;;19.35;10.32;;;;;;;-144.05;68.72;57152.56;5095483;28;20024;-78
2024/01/17 07:01:35;;;;;;;20.90;9.90;;;;;;;-144.05;68.41;57144.06;5095647;28;20106;-78
2024/01/17 07:04:02;;;;;;;33.10;14.55;;;;;;;-144.05;68.82;57146.19;5094942;28;20043;-76
2024/01/17 07:06:28;;;;;;;44.72;18.20;;;;;;;-144.05;68.48;57175.94;5093822;28;20492;-76
2024/01/17 07:08:54;;;;;;;37.55;15.65;;;;;;;-144.05;68.78;57173.81;5094769;28;20341;-78
2024/01/17 07:11:21;;;;;;;33.78;13.63;;;;;;;-144.05;68.74;57133.44;5096377;28;20020;-77
2024/01/17 07:13:48;;;;;;;32.03;12.73;;;;;;;-144.05;68.81;57158.94;5100135;28;20042;-76
2024/01/17 07:16:15;;;;;;;28.80;11.65;;;;;;;-144.05;68.66;57173.81;5101153;28;20110;-77
2024/01/17 07:18:41;;;;;;;29.67;12.75;;;;;;;-144.05;68.45;57129.22;5095622;28;20504;-76
2024/01/17 07:21:08;;;;;;;27.40;12.07;;;;;;;-144.05;68.32;57141.94;5094762;28;20058;-77
2024/01/17 07:23:37;;;;;;;25.27;11.38;;;;;;;-144.05;68.26;57158.94;5093284;28;20151;-77
2024/01/17 07:26:04;;;;;;;42.65;17.45;;;;;;;-144.05;68.29;57129.22;5093505;28;20057;-78
2024/01/17 07:28:30;;;;;;;38.75;16.33;;;;;;;-144.05;68.06;57148.31;5093468;28;20032;-76
2024/01/17 07:30:56;;;;;;;28.60;12.98;;;;;;;-144.05;68.06;57124.97;5094015;28;20024;-77
2024/01/17 07:33:22;;;;;;;29.13;11.43;;;;;;;-144.05;68.10;57120.72;5092571;28;20074;-75
2024/01/17 07:35:49;;;;;;;22.70;9.50;;;;;;;-144.05;68.08;57190.81;5094158;28;20023;-74
2024/01/17 07:38:15;;;;;;;23.10;10.13;;;;;;;-144.05;68.17;57182.31;5094077;28;20572;-76
2024/01/17 07:40:42;;;;;;;20.35;8.52;;;;;;;-144.05;68.03;57139.81;5095232;28;20043;-76
2024/01/17 07:43:08;;;;;;;20.08;8.27;;;;;;;-144.05;67.72;57148.31;5093897;28;20114;-77
2024/01/17 07:45:35;;;;;;;15.95;7.40;;;;;;;-144.05;67.00;57131.31;5093970;28;20024;-79
2024/01/17 07:48:01;;;;;;;13.13;7.30;;;;;;;-144.05;66.61;57150.44;5094605;28;20112;-76
2024/01/17 07:50:27;;;;;;;14.90;7.13;;;;;;;-144.05;66.24;57137.69;5092695;28;20555;-78
2024/01/17 07:52:53;;;;;;;15.23;7.47;;;;;;;-144.05;66.02;57131.31;5093630;28;20044;-78
2024/01/17 07:55:19;;;;;;;15.25;6.53;;;;;;;-144.05;65.53;57133.44;5092144;28;20441;-75
2024/01/17 07:57:46;;;;;;;18.27;7.93;;;;;;;-144.05;65.36;57152.56;5101799;28;20032;-78
2024/01/17 08:00:12;;;;;;;16.13;6.93;;;;;;;-144.05;65.07;57120.72;5100606;28;20107;-76
2024/01/17 08:02:40;;;;;;;12.65;6.38;;;;;;;-144.05;63.96;57165.31;5093377;28;20046;-75
2024/01/17 08:05:06;;;;;;;15.43;6.25;;;;;;;-144.05;64.03;57120.72;5091814;28;20114;-77
2024/01/17 08:07:33;;;;;;;11.32;5.88;;;1.50;99.90;;;-144.05;63.40;57150.44;5093590;28;20031;-78
2024/01/17 08:09:59;;;;;;;13.02;6.53;;;;;;;-144.05;62.50;57137.69;5094028;28;20034;-78
2024/01/17 08:12:26;;;;;;;11.70;5.88;;;;;;;-144.05;61.57;57150.44;5092788;28;20131;-77
2024/01/17 08:14:52;;;;;;;12.02;6.63;;;;;;;-144.05;61.21;57116.47;5093830;28;20032;-76
2024/01/17 08:17:18;;;;;;;15.55;6.50;;;;;;;-144.05;60.94;57141.94;5093448;28;20047;-77
2024/01/17 08:19:45;;;;;;;13.35;5.53;;;;;;;-144.05;60.89;57090.97;5092400;28;20027;-77
2024/01/17 08:22:12;;;;;;;16.63;6.53;;;;;;;-144.05;60.76;57112.22;5092217;28;20028;-79
2024/01/17 08:24:40;;;;;;;14.90;6.50;;;;;;;-144.05;60.60;57158.94;5095446;28;20023;-78
2024/01/17 08:27:06;;;;;;;12.02;6.10;;;;;;;-144.05;60.43;57152.56;5096001;28;20039;-77
2024/01/17 08:29:33;;;;;;;15.48;6.55;;;;;;;-144.05;60.46;57122.84;5098709;28;20067;-77
2024/01/17 08:32:00;;;;;;;12.18;6.75;;;;;;;-144.05;60.27;57116.47;5105962;28;20028;-78
2024/01/17 08:34:26;;;;;;;18.67;6.80;;;;;;;-144.05;59.78;57124.97;5107149;28;20030;-77
2024/01/17 08:36:54;;;;;;;16.75;6.00;;;;;;;-144.05;59.53;57101.59;5110133;28;20045;-79
2024/01/17 08:39:21;;;;;;;14.48;6.50;;;;;;;-144.05;59.24;57124.97;5108952;28;20416;-78
2024/01/17 08:41:47;;;;;;;17.48;5.95;;;;;;;-144.05;59.12;57112.22;5101572;28;20111;-76
2024/01/17 08:44:15;;;;;;;12.27;6.18;;;;;;;-144.05;58.79;57110.09;5104503;28;20052;-76
2024/01/17 08:46:48;;;;;;;11.73;6.30;;;;;;;-144.05;58.89;57148.31;5096748;28;20546;-77
2024/01/17 08:49:14;;;;;;;14.68;6.70;;;;;;;-144.05;58.56;57082.47;5108987;28;20098;-75
2024/01/17 08:51:41;;;;;;;11.68;5.28;;;;;;;-144.05;58.63;57124.97;5095853;28;20025;-78
2024/01/17 08:54:07;;;;;;;13.20;5.82;;;;;;;-144.05;58.72;57146.19;5101288;28;20028;-78
2024/01/17 08:56:34;;;;;;;11.02;5.90;;;;;;;-144.05;58.17;57122.84;5099244;28;20048;-77
2024/01/17 08:59:02;;;;;;;13.45;5.65;;;;;;;-144.05;57.96;57107.97;5094410;28;20480;-78
2024/01/17 09:01:28;;;;;;;12.98;6.50;;;;;;;-144.05;57.63;57099.47;5093825;28;20106;-78
2024/01/17 09:03:55;;;;;;;11.77;5.30;;;;;;;-144.05;57.81;57090.97;5094204;28;20035;-78
2024/01/17 09:06:21;;;;;;;11.80;5.75;;;;;;;-144.05;56.84;57105.84;5094356;28;20111;-76
2024/01/17 09:08:47;;;;;;;11.77;5.85;;;;;;;-144.05;56.91;57112.22;5094986;28;20031;-79
2024/01/17 09:11:14;;;;;;;11.98;6.25;;;;;;;-144.05;56.56;57124.97;5095938;28;20066;-78
2024/01/17 09:13:40;;;;;;;11.10;5.70;;;;;;;-144.05;56.59;57103.72;5100528;28;20027;-78
2024/01/17 09:16:06;;;;;;;14.52;6.63;;;;;;;-144.05;56.42;57052.75;5098377;28;20114;-78
2024/01/17 09:18:32;;;;;;;13.30;6.10;;;;;;;-144.05;55.46;57112.22;5111396;28;20073;-79
2024/01/17 09:20:58;;;;;;;11.07;5.53;;;;;;;-144.05;55.78;57093.09;5124465;28;20012;-79
2024/01/17 09:23:25;;;;;;;12.02;6.20;;;;;;;-144.05;54.63;57061.22;5099207;28;20039;-76
2024/01/17 09:25:51;;;;;;;13.18;5.97;;;;;;;-144.05;54.93;57088.84;5108934;28;20031;-78
2024/01/17 09:28:17;;;;;;;12.43;5.75;;;;;;;-144.05;54.93;57082.47;5101382;28;20554;-79
2024/01/17 09:30:43;;;;;;;19.17;7.03;;;;;;;-144.05;54.70;57141.94;5093022;28;20405;-78
2024/01/17 09:33:09;;;;;;;10.00;5.45;;;;;;;-144.05;55.02;57105.84;5093794;28;20484;-77
2024/01/17 09:35:38;;;;;;;14.65;5.65;;;;;;;-144.05;54.54;57069.72;5093227;28;20032;-78
2024/01/17 09:38:06;;;;;;;12.65;5.68;;;;;;;-144.05;55.00;57071.84;5093396;28;20024;-78
2024/01/17 09:40:33;;;;;;;12.88;5.68;;;;;;;-144.05;54.47;57110.09;5095116;28;20032;-77
2024/01/17 09:43:02;;;;;;;9.85;5.70;;;;;;;-144.05;54.91;57086.72;5094858;28;20035;-80
2024/01/17 09:45:30;;;;;;;15.90;6.53;;;-2.30;99.90;;;-144.05;54.21;57110.09;5095041;28;20031;-77
2024/01/17 09:47:58;;;;;;;12.88;5.75;;;;;;;-144.05;54.27;57090.97;5094463;28;20036;-76
2024/01/17 09:50:24;;;;;;;12.00;6.50;;;;;;;-144.05;54.07;57090.97;5094569;28;20448;-78
2024/01/17 09:52:57;;;;;;;13.52;5.97;;;2.20;99.90;;;-144.05;53.71;57040.00;5093161;28;20027;-76
2024/01/17 09:55:27;;;;;;;12.70;5.68;;;-2.60;99.90;;;-144.05;53.86;57073.97;5093604;28;20092;-79
2024/01/17 09:57:58;;;;;;;20.17;8.75;;;-2.20;99.90;;;-144.05;53.26;57073.97;5117786;28;20078;-82
2024/01/17 10:00:27;;;;;;;14.70;7.32;;;0.80;99.90;;;-144.05;52.97;57090.97;5094987;28;20036;-77
2024/01/17 10:02:55;;;;;;;14.23;7.80;;;0.60;99.90;;;-144.05;52.57;57059.09;5093261;28;20028;-80
2024/01/17 10:05:25;;;;;;;12.55;6.95;;;;;;;-144.05;52.32;57063.34;5093818;28;20036;-79
2024/01/17 10:07:54;;;;;;;10.85;6.22;;;;;;;-144.05;52.12;57052.75;5105337;28;20647;-79
2024/01/17 10:10:21;;;;;;;12.35;5.40;;;;;;;-144.05;51.88;57097.34;5100209;28;20028;-79
2024/01/17 10:12:48;;;;;;;13.27;6.55;;;;;;;-144.05;51.66;57080.34;5097932;28;20028;-78
2024/01/17 10:15:14;;;;;;;10.75;5.90;;;0.90;99.90;;;-144.05;52.04;57069.72;5097654;28;20108;-80
2024/01/17 10:17:41;;;;;;;9.73;5.22;;;;;;;-144.05;52.44;57080.34;5097027;28;20028;-79
2024/01/17 10:20:08;;;;;;;15.98;5.78;;;0.70;99.90;;;-144.05;51.95;57073.97;5095981;28;20065;-79
2024/01/17 10:22:35;;;;;;;12.63;6.07;;;;;;;-144.05;52.08;57082.47;5097156;28;20028;-78
2024/01/17 10:25:02;;;;;;;14.02;6.30;;;;;;;-144.05;52.32;57069.72;5100483;28;20048;-77
2024/01/17 10:27:29;;;;;;;13.32;6.20;;;;;;;-144.05;52.54;57086.72;5098516;28;20028;-79
2024/01/17 10:29:55;;;;;;;13.02;6.07;;;;;;;-144.05;52.47;57112.22;5110299;28;20032;-81
2024/01/17 10:32:22;;;;;;;10.48;5.32;;;;;;;-144.05;52.13;57099.47;5101717;28;20028;-79
2024/01/17 10:34:48;;;;;;;18.90;6.90;;;;;;;-144.05;52.47;57082.47;5101363;28;20024;-81
2024/01/17 10:37:18;;;;;;;13.98;6.28;;;0.80;99.90;;;-144.05;52.39;57069.72;5097520;28;20083;-79
2024/01/17 10:39:44;;;;;;;11.07;6.70;;;;;;;-144.05;52.44;57078.22;5098569;28;20028;-79
2024/01/17 10:42:20;;;;;;;11.60;5.88;;;0.80;99.90;;;-144.05;52.11;57065.47;5099404;28;20626;-80
2024/01/17 10:44:46;;;;;;;10.88;5.93;;;;;;;-144.05;52.05;57078.22;5110644;28;20062;-79
2024/01/17 10:47:13;;;;;;;13.45;6.57;;;;;;;-144.05;52.31;57099.47;5097779;28;20035;-82
2024/01/17 10:49:39;;;;;;;21.45;8.95;;;;;;;-144.05;52.79;57078.22;5099012;28;20108;-79
2024/01/17 10:52:09;;;;;;;20.50;8.88;;;0.30;99.90;;;-144.05;53.44;57084.59;5098332;28;20054;-80
2024/01/17 10:55:08;;;;;;;19.88;9.23;;;0.60;99.90;;;-144.05;53.74;57088.84;5102162;28;20062;-77
2024/01/17 10:57:40;;;;;;;20.00;9.05;;;;;;;-144.05;54.01;57078.22;5093004;28;20036;-77
2024/01/17 11:00:11;;;;;;;15.82;8.52;;;;;;;-144.05;54.59;57084.59;5098499;28;20032;-81